Egegik, Alaska
Current Conditions -  °F | °C
As of 6:56 PM on Sunday 21 Dec 2014 (Local Time) from PFWS Reporting Station
Few Clouds Few Clouds  
Wind Chill:   Ceiling: Unl
Heat Index: 12°   Visibility: 10mi
Dew Point:   Wind: 7mph
Humidity: 84%   Direction: 20°NNE
Pressure: 29.47"   Gusts: NA
Location:  58.21°N, 157.37°W
Report Text: PFWS 220356Z AUTO 02006KT 10SM FEW075 M11/M13 A2947 RMK AO2 SLP986 T11111133 FZRANO
Loading
Personal Weather Stations






























Interactive Weather Map New forecast layout! Learn more

10-Day Weather Forecast

Advertisements
Track Severe Weather on mobile